Time;durP1;ratioP1;P1;durP2;ratioP2;P2;SDS_P1;SDS_P2;PMS_P1;PMS_P2;Temp;Humidity;BMP_temperature;BMP_pressure;BME280_temperature;BME280_humidity;BME280_pressure;Samples;Min_cycle;Max_cycle;Signal;HPM_P1;HPM_P2
2022/01/23 00:01:43;;;;;;;68.63;28.35;;;;;;;-1.54;75.77;101530.47;4974674;28;20041;-80
2022/01/23 00:04:09;;;;;;;61.58;27.80;;;;;;;-1.53;75.93;101545.25;4974396;28;20053;-81
2022/01/23 00:06:35;;;;;;;64.68;27.92;;;;;;;-1.61;76.19;101543.47;4990754;28;20113;-80
2022/01/23 00:09:01;;;;;;;55.85;26.90;;;;;;;-1.64;76.88;101541.41;4990085;28;20039;-80
2022/01/23 00:11:29;;;;;;;72.00;30.00;;;;;;;-1.66;76.85;101543.75;4990482;28;20105;-80
2022/01/23 00:19:12;;;;;;;73.25;31.48;;;;;;;-1.70;77.32;101545.66;4987979;28;20503;-79
2022/01/23 00:21:39;;;;;;;68.32;30.23;;;;;;;-1.70;77.96;101528.91;4957902;28;20085;-80
2022/01/23 00:32:04;;;;;;;75.00;33.25;;;;;;;-1.48;77.16;101503.84;4975654;28;20510;-79
2022/01/23 00:34:30;;;;;;;73.35;29.88;;;;;;;-1.40;77.50;101502.03;4976016;28;20039;-80
2022/01/23 00:36:57;;;;;;;69.07;31.33;;;;;;;-1.30;77.34;101504.22;4974591;28;20035;-80
2022/01/23 00:39:24;;;;;;;69.13;31.35;;;;;;;-1.25;77.12;101515.09;4975170;28;20049;-79
2022/01/23 00:41:50;;;;;;;62.30;29.20;;;;;;;-1.21;77.24;101527.16;4974432;28;20038;-80
2022/01/23 00:44:15;;;;;;;62.05;29.35;;;;;;;-1.15;77.07;101517.31;4975295;28;20041;-80
2022/01/23 00:46:49;;;;;;;55.50;28.08;;;;;;;-1.11;76.94;101520.97;4973561;28;20030;-79
2022/01/23 00:49:25;;;;;;;66.53;28.75;;;;;;;-1.12;77.09;101513.75;4989797;28;20486;-79
2022/01/23 00:51:52;;;;;;;64.07;30.13;;;;;;;-0.98;77.02;101530.81;4974163;28;20042;-80
2022/01/23 00:54:18;;;;;;;66.60;29.98;;;;;;;-0.91;77.03;101521.75;4974786;28;20026;-80
2022/01/23 00:56:46;;;;;;;71.45;28.83;;;;;;;-0.88;76.85;101524.59;4989640;28;20443;-79
2022/01/23 00:59:12;;;;;;;74.78;30.73;;;;;;;-0.85;76.87;101525.06;4973942;28;20027;-79
2022/01/23 01:01:37;;;;;;;66.03;31.77;;;;;;;-0.82;77.08;101541.06;4990901;28;20097;-79
2022/01/23 01:04:04;;;;;;;66.85;32.40;;;;;;;-0.76;76.91;101543.22;4957679;28;20027;-80
2022/01/23 01:06:31;;;;;;;72.13;30.52;;;;;;;-0.74;76.56;101540.81;4975733;28;20039;-79
2022/01/23 01:09:02;;;;;;;65.22;30.63;;;;;;;-0.65;77.19;101547.00;4975689;28;20093;-80
2022/01/23 01:33:53;;;;;;;55.33;26.08;;;;;;;-0.43;76.50;101543.41;4978873;28;20074;-80
2022/01/23 01:38:44;;;;;;;58.63;25.55;;;;;;;-0.36;76.62;101528.72;4978766;28;20034;-80
2022/01/23 01:41:24;;;;;;;57.53;25.67;;;;;;;-0.25;76.48;101534.50;4993266;28;20388;-80
2022/01/23 01:43:51;;;;;;;45.28;24.10;;;;;;;-0.20;76.46;101525.78;4978164;28;20381;-79
2022/01/23 01:46:18;;;;;;;45.53;24.38;;;;;;;-0.20;76.24;101525.78;4960964;28;20031;-79
2022/01/23 01:48:44;;;;;;;53.97;23.92;;;;;;;-0.16;76.19;101538.66;4976905;28;20045;-78
2022/01/23 01:51:14;;;;;;;50.80;24.60;;;;;;;-0.15;76.44;101529.03;4978650;28;20113;-81
2022/01/23 01:53:45;;;;;;;48.15;22.92;;;;;;;-0.10;76.24;101527.94;4977514;28;20039;-80
2022/01/23 01:56:12;;;;;;;53.17;23.33;;;;;;;-0.12;76.23;101519.09;4977435;28;20067;-80
2022/01/23 02:02:53;;;;;;;44.05;23.33;;;;;;;-0.01;76.43;101525.69;4977150;28;20091;-79
2022/01/23 02:09:42;;;;;;;40.58;19.73;;;;;;;0.10;76.10;101520.25;4978419;28;20180;-81
2022/01/23 02:12:41;;;;;;;40.72;20.63;;;;;;;0.11;76.23;101505.03;4962215;28;20077;-80
2022/01/23 02:15:38;;;;;;;40.38;20.08;;;;;;;0.08;75.68;101494.59;4977406;28;20026;-80
2022/01/23 02:18:22;;;;;;;44.35;21.58;;;;;;;0.18;75.88;101513.53;4977563;28;20443;-79
2022/01/23 02:51:15;;;;;;;38.70;17.95;;;;;;;0.33;75.80;101547.00;4976963;28;20510;-80
2022/01/23 02:56:31;;;;;;;40.92;17.25;;;;;;;0.36;75.48;101546.22;4976942;28;20039;-80
2022/01/23 02:58:59;;;;;;;38.40;18.85;;;;;;;0.39;75.77;101555.88;4976770;28;20480;-79
2022/01/23 03:01:31;;;;;;;37.22;20.05;;;;;;;0.42;75.73;101550.31;4975466;28;20026;-80
2022/01/23 03:04:02;;;;;;;39.97;19.33;;;;;;;0.40;75.81;101543.47;4975360;28;20022;-80
2022/01/23 03:15:01;;;;;;;40.17;18.20;;;;;;;0.47;75.54;101557.59;4975649;28;20488;-80
2022/01/23 03:28:36;;;;;;;34.08;16.52;;;;;;;0.59;75.30;101540.53;4976188;28;20045;-79
2022/01/23 03:33:31;;;;;;;34.95;18.45;;;;;;;0.67;75.43;101547.84;4991132;28;20142;-80
2022/01/23 03:35:58;;;;;;;33.50;17.25;;;;;;;0.71;75.49;101545.88;4959478;28;20117;-79
2022/01/23 03:38:24;;;;;;;31.15;15.80;;;;;;;0.73;75.59;101534.31;4958873;28;20034;-80
2022/01/23 03:40:49;;;;;;;37.90;16.63;;;;;;;0.75;75.51;101546.72;4976010;28;20480;-80
2022/01/23 03:43:22;;;;;;;31.90;16.98;;;;;;;0.78;75.38;101534.78;4990993;28;20085;-80
2022/01/23 03:46:21;;;;;;;;;;;;;;;0.77;75.36;101529.53;4989721;28;20023;-79
2022/01/23 03:51:12;;;;;;;36.33;15.88;;;;;;;0.76;75.62;101553.97;4974014;28;20039;-80
2022/01/23 03:53:46;;;;;;;33.50;16.17;;;;;;;0.78;75.27;101537.56;4973811;28;20074;-79
2022/01/23 03:56:14;;;;;;;30.63;16.42;;;;;;;0.79;74.97;101544.00;4974164;28;20026;-81
2022/01/23 03:58:41;;;;;;;41.35;17.35;;;;;;;0.79;75.78;101547.56;4974596;28;20044;-81
2022/01/23 04:01:07;;;;;;;37.15;18.27;;;;;;;0.83;75.55;101544.84;4974955;28;20090;-79
2022/01/23 04:03:37;;;;;;;26.23;15.82;;;;;;;0.89;75.26;101548.91;4957963;28;20035;-80
2022/01/23 04:06:03;;;;;;;35.80;16.73;;;;;;;0.93;75.23;101548.97;4972053;28;20034;-79
2022/01/23 04:08:28;;;;;;;31.77;15.38;;;;;;;0.94;75.07;101542.16;4942076;28;20587;-80
2022/01/23 04:10:55;;;;;;;36.08;18.25;;;;;;;0.98;75.13;101546.63;4974037;28;20365;-79
2022/01/23 04:13:43;;;;;;;36.05;17.05;;;;;;;0.99;75.40;101548.22;4956981;28;20030;-79
2022/01/23 04:19:30;;;;;;;34.35;17.20;;;;;;;1.05;75.20;101552.31;4960121;28;20073;-79
2022/01/23 04:33:14;;;;;;;31.75;16.63;;;;;;;1.17;74.84;101568.88;4989255;28;20061;-81
2022/01/23 05:00:11;;;;;;;32.03;16.27;;;;;;;1.36;74.66;101601.56;4974123;28;20045;-80
2022/01/23 05:05:27;;;;;;;35.30;16.80;;;;;;;1.48;74.75;101606.09;4987912;28;20054;-79
2022/01/23 05:07:53;;;;;;;30.00;16.40;;;;;;;1.47;74.29;101610.91;4974940;28;20033;-80
2022/01/23 05:10:18;;;;;;;31.10;15.82;;;;;;;1.53;74.88;101616.97;4989901;28;20030;-80
2022/01/23 05:12:47;;;;;;;28.45;15.20;;;;;;;1.54;74.13;101610.97;4975373;28;20038;-80
2022/01/23 05:15:14;;;;;;;27.67;15.48;;;;;;;1.37;73.93;101583.53;5006893;28;20078;-80
2022/01/23 05:17:41;;;;;;;30.42;14.68;;;;;;;1.53;74.73;101623.38;4974199;28;20043;-79
2022/01/23 05:20:08;;;;;;;27.25;14.50;;;;;;;1.53;74.05;101611.38;4974406;28;20510;-80
2022/01/23 05:27:31;;;;;;;27.73;15.02;;;;;;;1.68;74.13;101613.91;4992197;28;20066;-79
2022/01/23 05:29:58;;;;;;;33.35;15.10;;;;;;;1.71;73.31;101613.16;4990303;28;20039;-79
2022/01/23 05:32:29;;;;;;;31.25;13.77;;;;;;;1.72;74.06;101602.72;4957864;28;20062;-79
2022/01/23 05:34:55;;;;;;;25.15;14.07;;;;;;;1.74;73.78;101608.75;4957952;28;20058;-80
2022/01/23 05:37:21;;;;;;;26.95;14.90;;;;;;;1.76;73.68;101608.38;4974150;28;20022;-79
2022/01/23 05:39:47;;;;;;;26.48;13.85;;;;;;;1.78;73.87;101614.41;4974659;28;20052;-79
2022/01/23 05:42:13;;;;;;;31.40;15.25;;;;;;;1.80;73.81;101612.81;4974513;28;20073;-79
2022/01/23 05:44:41;;;;;;;23.45;13.27;;;;;;;1.81;73.67;101606.03;4975164;28;20023;-79
2022/01/23 05:47:10;;;;;;;26.40;14.25;;;;;;;1.80;73.58;101603.59;4973151;28;20038;-79
2022/01/23 05:49:35;;;;;;;29.48;15.02;;;;;;;1.73;73.84;101595.88;4973208;28;20077;-79
2022/01/23 05:52:01;;;;;;;25.65;13.85;;;;;;;1.82;73.35;101606.81;4989291;28;20110;-80
2022/01/23 05:54:28;;;;;;;24.45;13.10;;;;;;;1.86;73.56;101607.66;4972801;28;20484;-80
2022/01/23 05:56:55;;;;;;;26.25;13.98;;;;;;;1.84;73.61;101604.41;4974169;28;20117;-80
2022/01/23 05:59:22;;;;;;;27.05;13.95;;;;;;;1.88;73.62;101624.91;4974340;28;20034;-81
2022/01/23 06:01:55;;;;;;;23.38;12.57;;;;;;;1.85;74.00;101617.28;4989047;28;20487;-81
2022/01/23 06:04:25;;;;;;;31.42;16.17;;;;;;;1.83;73.88;101617.66;4974058;28;20034;-80
2022/01/23 06:07:06;;;;;;;24.73;12.77;;;;;;;1.87;74.24;101612.91;4973232;28;20027;-80
2022/01/23 06:09:31;;;;;;;24.13;13.13;;;;;;;1.88;73.97;101616.50;4957287;28;20031;-80
2022/01/23 06:11:57;;;;;;;29.63;14.55;;;;;;;1.90;73.96;101614.94;4989794;28;20034;-76
2022/01/23 06:14:25;;;;;;;25.27;14.18;;;;;;;1.82;73.89;101604.03;4974223;28;20574;-77
2022/01/23 06:16:51;;;;;;;23.42;13.27;;;;;;;1.90;73.94;101625.34;4973181;28;20039;-76
2022/01/23 06:19:18;;;;;;;30.25;14.60;;;;;;;1.85;74.32;101625.69;4991420;28;20062;-76
2022/01/23 06:21:45;;;;;;;28.05;13.45;;;;;;;1.82;74.12;101627.28;4977669;28;20085;-77
2022/01/23 06:24:22;;;;;;;28.90;14.55;;;;;;;1.86;74.12;101642.19;4977692;28;20037;-76
2022/01/23 06:26:52;;;;;;;29.15;13.85;;;;;;;1.87;74.48;101623.31;4978414;28;20026;-77
2022/01/23 06:29:20;;;;;;;26.75;14.25;;;;;;;1.89;74.77;101618.09;4978966;28;20102;-77
2022/01/23 06:31:47;;;;;;;28.70;15.90;;;;;;;1.91;74.72;101624.16;4961140;28;20567;-78
2022/01/23 06:34:15;;;;;;;29.52;15.05;;;;;;;1.91;74.20;101624.16;4975979;28;20031;-76
2022/01/23 06:36:41;;;;;;;27.85;14.57;;;;;;;1.94;74.35;101623.38;4976370;28;20399;-77
2022/01/23 06:39:11;;;;;;;29.17;14.73;;;;;;;1.92;74.30;101626.59;4959964;28;20030;-76
2022/01/23 06:41:37;;;;;;;30.08;16.23;;;;;;;1.91;74.67;101621.34;4959706;28;20126;-77
2022/01/23 06:44:03;;;;;;;31.40;15.70;;;;;;;1.90;74.39;101614.13;4991959;28;20463;-76
2022/01/23 06:46:31;;;;;;;32.78;16.40;;;;;;;1.96;75.02;101612.56;4977166;28;20065;-76
2022/01/23 06:49:11;;;;;;;30.75;15.13;;;;;;;1.97;75.16;101617.81;4992019;28;20388;-78
2022/01/23 06:51:51;;;;;;;29.45;16.05;;;;;;;2.02;74.34;101625.84;4977629;28;20038;-78
2022/01/23 06:54:19;;;;;;;30.90;16.27;;;;;;;2.03;74.89;101621.84;4976346;28;20031;-79
2022/01/23 06:56:45;;;;;;;33.15;15.57;;;;;;;2.07;74.86;101625.50;4979050;28;20464;-78
2022/01/23 06:59:10;;;;;;;32.92;16.63;;;;;;;2.04;74.25;101619.84;4976049;28;20027;-78
2022/01/23 07:01:35;;;;;;;28.92;15.15;;;;;;;2.08;74.63;101626.31;4991925;28;20454;-73
2022/01/23 07:04:01;;;;;;;35.30;17.48;;;;;;;2.14;74.25;101636.81;4991647;28;20488;-73
2022/01/23 07:06:26;;;;;;;29.20;15.60;;;;;;;2.15;74.22;101635.63;4976692;28;20396;-75
2022/01/23 07:08:53;;;;;;;28.88;16.05;;;;;;;2.18;74.46;101643.25;4976824;28;20045;-74
2022/01/23 07:11:18;;;;;;;30.98;16.58;;;;;;;2.09;74.22;101625.13;4991562;28;20038;-75
2022/01/23 07:13:44;;;;;;;26.65;15.55;;;;;;;2.23;74.47;101644.09;4975045;28;20509;-75
2022/01/23 07:16:11;;;;;;;25.73;15.95;;;;;;;2.26;74.56;101649.75;4976817;28;20472;-74
2022/01/23 07:18:36;;;;;;;30.38;15.57;;;;;;;2.28;73.78;101652.16;4991350;28;20034;-75
2022/01/23 07:21:02;;;;;;;27.75;15.43;;;;;;;2.26;74.21;101652.56;4991309;28;20114;-75
2022/01/23 07:23:30;;;;;;;26.67;14.55;;;;;;;2.29;73.89;101665.03;4976274;28;20031;-76
2022/01/23 07:25:58;;;;;;;30.17;16.55;;;;;;;2.33;73.69;101663.84;4976158;28;20031;-75
2022/01/23 07:28:36;;;;;;;28.80;15.30;;;;;;;2.41;74.06;101671.16;4974696;28;20125;-75
2022/01/23 07:31:05;;;;;;;29.75;15.40;;;;;;;2.47;74.11;101671.59;4976378;28;20049;-75
2022/01/23 07:33:36;;;;;;;30.80;14.80;;;;;;;2.52;73.77;101669.22;4974542;28;20050;-75
2022/01/23 07:36:03;;;;;;;30.30;15.50;;;;;;;2.59;74.02;101668.47;4990751;28;20031;-75
2022/01/23 07:38:30;;;;;;;32.85;15.35;;;;;;;2.63;73.43;101677.72;4974720;28;20038;-73
2022/01/23 07:40:56;;;;;;;25.55;14.98;;;;;;;2.72;73.26;101688.63;4974684;28;20373;-74
2022/01/23 07:43:23;;;;;;;32.67;16.27;;;;;;;2.69;73.27;101690.25;4974684;28;20059;-77
2022/01/23 07:45:49;;;;;;;32.33;16.40;;;;;;;2.75;73.27;101691.50;4976159;28;20128;-77
2022/01/23 07:48:15;;;;;;;33.22;15.77;;;;;;;2.85;72.67;101696.38;4974611;28;20071;-78
2022/01/23 07:50:40;;;;;;;26.88;15.27;;;;;;;2.92;72.64;101692.78;4974458;28;20054;-78
2022/01/23 07:53:06;;;;;;;26.40;15.00;;;;;;;2.93;72.80;101692.41;4976452;28;20031;-77
2022/01/23 07:55:32;;;;;;;27.67;15.55;;;;;;;3.00;73.43;101691.66;4990655;28;20026;-77
2022/01/23 07:58:04;;;;;;;28.45;15.35;;;;;;;3.10;72.56;101701.34;4990621;28;20031;-79
2022/01/23 08:00:30;;;;;;;29.83;15.73;;;;;;;3.20;72.20;101711.88;4976239;28;20031;-79
2022/01/23 08:02:56;;;;;;;28.98;16.13;;;;;;;3.22;72.25;101724.34;4958465;28;20034;-78
2022/01/23 08:05:22;;;;;;;31.45;16.77;;;;;;;3.23;71.96;101713.88;4974156;28;20077;-75
2022/01/23 08:07:56;;;;;;;28.10;15.88;;;;;;;3.37;71.68;101731.66;4974188;28;20058;-77
2022/01/23 08:10:23;;;;;;;28.42;15.05;;;;;;;3.38;71.49;101735.28;4975688;28;20033;-77
2022/01/23 08:12:49;;;;;;;36.17;15.98;;;;;;;3.42;71.73;101744.53;4974221;28;20428;-79
2022/01/23 08:15:16;;;;;;;32.50;16.15;;;;;;;3.40;71.58;101741.34;4974097;28;20124;-75
2022/01/23 08:17:48;;;;;;;33.30;17.10;;;;;;;3.51;71.13;101749.81;4974281;28;20023;-76
2022/01/23 08:20:15;;;;;;;31.77;15.68;;;;;;;3.54;71.08;101744.22;4975526;28;20057;-78
2022/01/23 08:22:41;;;;;;;36.30;14.85;;;;;;;3.67;70.76;101755.94;4975483;28;20105;-75
2022/01/23 08:25:08;;;;;;;31.50;17.27;;;;;;;3.61;70.81;101749.06;4975226;28;20531;-77
2022/01/23 08:27:34;;;;;;;30.05;15.55;;;;;;;3.59;70.13;101754.28;4989995;28;20030;-77
2022/01/23 08:30:04;;;;;;;27.33;14.63;;;;;;;3.66;70.57;101759.94;4974669;28;20041;-77
2022/01/23 08:32:30;;;;;;;30.92;16.05;;;;;;;3.67;70.43;101739.03;4959415;28;20055;-77
2022/01/23 08:34:56;;;;;;;27.25;15.32;;;;;;;3.73;70.30;101743.06;4957188;28;20058;-77
2022/01/23 08:37:23;;;;;;;28.95;14.85;;;;;;;3.80;70.28;101746.72;4973183;28;20078;-76
2022/01/23 08:39:49;;;;;;;32.03;15.98;;;;;;;3.75;70.65;101733.00;4961874;28;20035;-77
2022/01/23 08:42:17;;;;;;;23.90;14.23;;;;;;;3.85;70.15;101739.88;4969064;28;20097;-78
2022/01/23 08:44:45;;;;;;;26.80;14.93;;;;;;;3.96;70.18;101748.38;4996726;28;20031;-76
2022/01/23 08:47:11;;;;;;;26.23;14.02;;;;;;;4.00;70.08;101752.00;4961112;28;20120;-76
2022/01/23 08:49:44;;;;;;;29.98;16.02;;;;;;;4.11;70.04;101748.00;4987917;28;20177;-76
2022/01/23 08:52:12;;;;;;;25.13;13.23;;;;;;;4.18;69.73;101756.50;4968902;28;20049;-76
2022/01/23 08:54:38;;;;;;;28.35;13.50;;;;;;;4.28;69.67;101749.28;4988998;28;20097;-77
2022/01/23 08:57:06;;;;;;;31.02;15.63;;;;;;;4.42;68.84;101754.94;4989072;28;20086;-76
2022/01/23 08:59:31;;;;;;;27.98;14.77;;;;;;;4.50;68.38;101753.72;4989155;28;20030;-77
2022/01/23 09:01:57;;;;;;;26.08;14.07;;;;;;;4.64;68.39;101750.09;4973639;28;20038;-77
2022/01/23 09:04:24;;;;;;;29.73;14.98;;;;;;;4.77;68.21;101760.59;4988468;28;20284;-76
2022/01/23 09:06:49;;;;;;;30.33;15.68;;;;;;;4.90;67.89;101757.34;4972113;28;20034;-77
2022/01/23 09:09:18;;;;;;;35.03;16.92;;;;;;;5.03;67.03;101764.19;5004884;28;20037;-76
2022/01/23 09:12:00;;;;;;;30.13;15.18;;;;;;;5.06;67.13;101767.00;4974232;28;20049;-76
2022/01/23 09:14:26;;;;;;;32.55;16.50;;;;;;;5.15;67.05;101761.75;4971467;28;20468;-77
2022/01/23 09:16:52;;;;;;;26.63;15.68;;;;;;;5.25;67.18;101765.75;5005295;28;20057;-77
2022/01/23 09:19:20;;;;;;;31.23;16.58;;;;;;;5.31;66.37;101768.97;4973369;28;20023;-75
2022/01/23 09:21:51;;;;;;;28.27;16.00;;;;;;;5.16;66.08;101732.31;4966848;28;20102;-79
2022/01/23 09:24:24;;;;;;;29.35;15.82;;;;;;;5.39;65.94;101765.72;4973994;28;20047;-76
2022/01/23 09:26:53;;;;;;;26.52;15.38;;;;;;;5.52;66.22;101775.41;4956653;28;20042;-77
2022/01/23 09:29:38;;;;;;;27.23;14.65;;;;;;;5.62;65.30;101768.09;4987509;28;20480;-77
2022/01/23 09:32:08;;;;;;;29.52;14.95;;;;;;;5.65;65.44;101764.44;4972315;28;20399;-76
2022/01/23 09:34:33;;;;;;;24.45;14.00;;;;;;;5.74;65.07;101778.13;4971959;28;20067;-77
2022/01/23 09:37:04;;;;;;;27.67;14.63;;;;;;;5.76;64.87;101773.69;4973268;28;20441;-76
2022/01/23 09:39:31;;;;;;;28.30;13.97;;;;;;;5.83;65.53;101779.28;4972235;28;20118;-77
2022/01/23 09:42:19;;;;;;;26.52;14.65;;;;;;;5.87;64.59;101780.13;5004443;28;20047;-76
2022/01/23 09:44:46;;;;;;;31.25;14.10;;;;;;;5.89;64.22;101776.88;4984573;28;20191;-74
2022/01/23 09:47:13;;;;;;;25.90;14.40;;;;;;;5.98;65.28;101778.06;4973283;28;20447;-76
2022/01/23 09:49:39;;;;;;;25.92;14.88;;;;;;;6.05;64.43;101765.91;4973634;28;20035;-75
2022/01/23 09:52:08;;;;;;;23.13;14.13;;;;;;;6.12;64.46;101767.91;5005945;28;20105;-74
2022/01/23 09:54:35;;;;;;;31.10;16.02;;;;;;;6.28;64.71;101771.00;5008441;28;20109;-74
2022/01/23 09:57:03;;;;;;;33.15;14.60;;;;;;;6.36;64.42;101779.06;5008717;28;20027;-75
2022/01/23 09:59:29;;;;;;;26.35;14.35;;;;;;;6.40;64.20;101774.19;4977219;28;20050;-75
2022/01/23 10:01:56;;;;;;;23.58;13.63;;;;;;;6.44;63.13;101783.44;4976143;28;20468;-75
2022/01/23 10:04:23;;;;;;;29.00;14.82;;;;;;;6.43;63.34;101784.66;4976329;28;20022;-75
2022/01/23 10:06:51;;;;;;;29.55;15.82;;;;;;;6.41;63.90;101786.31;4992319;28;20395;-74
2022/01/23 10:09:17;;;;;;;27.58;15.25;;;;;;;6.39;63.94;101772.56;4958826;28;20027;-77
2022/01/23 10:11:57;;;;;;;22.45;13.32;;;;;;;6.44;63.76;101779.81;4975194;28;20038;-73
2022/01/23 10:14:23;;;;;;;26.27;14.80;;;;;;;6.47;63.22;101778.97;4971385;28;20114;-75
2022/01/23 10:16:58;;;;;;;30.00;16.17;;;;;;;6.45;63.70;101770.09;5000533;28;20047;-76
2022/01/23 10:19:23;;;;;;;27.52;15.20;;;;;;;6.48;63.95;101777.75;4975292;28;20058;-76
2022/01/23 10:21:49;;;;;;;24.90;14.43;;;;;;;6.49;63.42;101768.88;4958709;28;20069;-77
2022/01/23 10:24:15;;;;;;;34.25;15.05;;;;;;;6.55;63.71;101780.56;4976746;28;20472;-76
2022/01/23 10:26:51;;;;;;;26.90;16.30;;;;;;;6.49;63.00;101782.22;4972928;28;20057;-77
2022/01/23 10:29:33;;;;;;;24.55;15.82;;;;;;;6.41;63.36;101781.44;4976978;28;20085;-75
2022/01/23 10:32:18;;;;;;;29.70;16.00;;;;;;;6.40;64.16;101784.69;4975230;28;20042;-76
2022/01/23 10:35:00;;;;;;;24.98;14.38;;;;;;;6.47;63.66;101776.94;4976294;28;20398;-76
2022/01/23 10:37:27;;;;;;;29.33;15.48;;;;;;;6.55;63.34;101762.75;4975085;28;20053;-74
2022/01/23 10:39:53;;;;;;;29.90;17.73;;;;;;;6.44;64.06;101768.50;4977005;28;20035;-77
2022/01/23 10:47:56;;;;;;;33.92;17.42;;;;;;;6.39;64.07;101778.22;4976317;28;20494;-77
2022/01/23 10:50:23;;;;;;;32.30;17.08;;;;;;;6.47;64.49;101776.94;5006047;28;20480;-76
2022/01/23 10:52:55;;;;;;;31.92;17.38;;;;;;;6.52;64.33;101761.56;4975273;28;20456;-76
2022/01/23 10:55:34;;;;;;;36.08;18.42;;;;;;;6.53;64.52;101771.66;4958932;28;20089;-76
2022/01/23 10:58:06;;;;;;;27.65;15.55;;;;;;;6.41;64.77;101778.59;4976563;28;20102;-75
2022/01/23 11:00:37;;;;;;;33.50;17.65;;;;;;;6.35;64.95;101771.78;4987637;28;20035;-76
2022/01/23 11:03:20;;;;;;;29.42;17.23;;;;;;;6.23;65.10;101777.09;4976404;28;20014;-76
2022/01/23 11:05:48;;;;;;;29.15;17.38;;;;;;;6.22;64.94;101779.13;4975227;28;20114;-77
2022/01/23 11:08:31;;;;;;;29.60;16.60;;;;;;;6.16;65.32;101777.97;4991475;28;20154;-76
2022/01/23 11:11:03;;;;;;;29.45;17.05;;;;;;;6.19;65.09;101779.16;4991479;28;20038;-76
2022/01/23 11:19:17;;;;;;;30.58;18.30;;;;;;;5.98;64.92;101774.41;4976598;28;20116;-75
2022/01/23 11:21:43;;;;;;;32.85;19.60;;;;;;;6.04;66.12;101793.38;4976202;28;20476;-74
2022/01/23 11:24:12;;;;;;;43.08;22.08;;;;;;;6.03;65.30;101777.63;4958939;28;20031;-76
2022/01/23 11:26:39;;;;;;;33.42;19.20;;;;;;;6.00;65.51;101772.00;4974898;28;20225;-75
2022/01/23 11:29:13;;;;;;;28.75;17.70;;;;;;;6.01;65.91;101774.41;4991143;28;20058;-75
2022/01/23 11:31:40;;;;;;;31.88;18.65;;;;;;;5.96;66.06;101755.06;4991008;28;20368;-75
2022/01/23 11:34:07;;;;;;;32.40;18.70;;;;;;;6.04;65.90;101761.47;4975735;28;20039;-76
2022/01/23 11:36:35;;;;;;;41.13;20.67;;;;;;;5.98;65.77;101772.41;4990873;28;20118;-75
2022/01/23 11:39:09;;;;;;;41.08;21.70;;;;;;;5.90;66.08;101761.53;4958649;28;20046;-74
2022/01/23 11:56:31;;;;;;;42.42;22.35;;;;;;;5.52;67.57;101778.22;4956693;29;20373;-76
2022/01/23 11:59:40;;;;;;;38.53;20.50;;;;;;;5.57;67.22;101771.34;4962389;28;20027;-76
2022/01/23 12:02:20;;;;;;;37.53;20.25;;;;;;;5.69;67.28;101770.88;4975687;28;20054;-77
2022/01/23 12:05:21;;;;;;;38.30;21.45;;;;;;;5.82;66.81;101780.50;4974720;28;20033;-76
2022/01/23 12:08:19;;;;;;;35.58;18.85;;;;;;;5.86;66.53;101780.50;4990457;28;20114;-76
2022/01/23 12:16:54;;;;;;;35.95;16.90;;;;;;;5.87;67.01;101776.50;4996589;28;20030;-75
2022/01/23 12:19:21;;;;;;;31.52;17.17;;;;;;;5.79;67.26;101772.03;4975078;28;20031;-77
2022/01/23 12:22:25;;;;;;;31.95;16.92;;;;;;;5.67;67.48;101761.22;4975043;28;20033;-78
2022/01/23 12:24:53;;;;;;;30.35;18.17;;;;;;;5.64;68.15;101774.94;4990200;28;20031;-76
2022/01/23 12:27:24;;;;;;;33.50;21.02;;;;;;;5.61;68.67;101760.81;4990029;28;20026;-76
2022/01/23 12:29:50;;;;;;;38.90;22.10;;;;;;;5.51;68.35;101753.19;4975246;28;20375;-76
2022/01/23 12:32:29;;;;;;;43.65;21.63;;;;;;;5.66;69.00;101768.88;4974842;28;20853;-76
2022/01/23 12:35:12;;;;;;;36.90;20.50;;;;;;;5.73;68.83;101766.00;4969813;28;20511;-76
2022/01/23 12:37:58;;;;;;;37.78;19.40;;;;;;;5.91;68.27;101780.13;4973751;28;20031;-75
2022/01/23 12:40:47;;;;;;;35.53;18.98;;;;;;;5.96;68.25;101779.69;4974997;28;20031;-76
2022/01/23 12:43:25;;;;;;;33.42;18.95;;;;;;;5.99;69.14;101779.66;4973761;28;20027;-76
2022/01/23 12:46:00;;;;;;;35.05;19.67;;;;;;;5.99;68.35;101773.19;4973882;28;20464;-77
2022/01/23 12:48:26;;;;;;;36.38;19.88;;;;;;;5.97;69.10;101773.59;4973527;28;20459;-76
2022/01/23 12:51:02;;;;;;;36.80;19.13;;;;;;;5.99;68.86;101776.84;4989713;28;20113;-76
2022/01/23 12:53:41;;;;;;;34.88;19.80;;;;;;;5.99;68.95;101773.19;4989632;28;20089;-77
2022/01/23 12:56:41;;;;;;;33.15;18.65;;;;;;;5.95;69.58;101770.41;4974591;28;20122;-77
2022/01/23 12:59:10;;;;;;;34.30;18.20;;;;;;;5.98;69.57;101769.56;4978042;28;20113;-75
2022/01/23 13:01:37;;;;;;;31.38;17.77;;;;;;;6.01;69.79;101770.78;4989213;28;20033;-75
2022/01/23 13:04:06;;;;;;;31.00;17.75;;;;;;;6.00;69.63;101760.69;4973539;28;20097;-76
2022/01/23 13:06:37;;;;;;;31.58;17.80;;;;;;;6.03;70.46;101762.66;4989435;28;20134;-76
2022/01/23 13:17:44;;;;;;;34.97;18.85;;;;;;;6.12;69.99;101774.34;4973299;28;20176;-75
2022/01/23 13:32:11;;;;;;;28.33;15.98;;;;;;;6.19;69.89;101765.00;4978328;28;20045;-76
2022/01/23 13:34:51;;;;;;;23.20;14.07;;;;;;;6.18;71.00;101766.22;4977076;28;20046;-76
2022/01/23 13:37:24;;;;;;;28.67;16.58;;;;;;;6.19;71.00;101770.66;4976793;28;20034;-76
2022/01/23 13:39:59;;;;;;;25.50;15.45;;;;;;;6.03;70.67;101777.63;4978449;28;20029;-76
2022/01/23 14:00:03;;;;;;;23.50;13.48;;;;;;;5.90;70.54;101790.63;4977024;28;20037;-74
2022/01/23 14:02:47;;;;;;;21.88;13.10;;;;;;;5.89;71.60;101786.19;4977563;28;20030;-76
2022/01/23 14:05:18;;;;;;;26.55;14.55;;;;;;;5.89;71.23;101793.84;4976964;28;20034;-75
2022/01/23 14:07:52;;;;;;;22.77;14.18;;;;;;;5.82;71.08;101805.94;4978093;28;20023;-78
2022/01/23 14:10:19;;;;;;;27.45;15.60;;;;;;;5.65;71.52;101798.34;4960042;28;20023;-73
2022/01/23 14:12:47;;;;;;;24.30;14.75;;;;;;;5.54;71.37;101811.69;4978074;28;20033;-74
2022/01/23 14:15:25;;;;;;;31.08;14.73;;;;;;;5.46;72.05;101810.13;5009146;28;20030;-74
2022/01/23 14:18:11;;;;;;;22.48;13.82;;;;;;;5.32;71.75;101810.16;5005934;28;20105;-75
2022/01/23 14:20:42;;;;;;;49.75;15.65;;;;;;;5.18;71.80;101811.75;4960062;28;20023;-74
2022/01/23 14:23:16;;;;;;;32.35;16.27;;;;;;;5.05;72.68;101816.22;4991970;28;20022;-75
2022/01/23 14:25:47;;;;;;;32.25;15.43;;;;;;;4.96;72.39;101815.00;4976127;28;20037;-78
2022/01/23 14:28:15;;;;;;;25.50;16.33;;;;;;;4.91;73.35;101819.03;4976081;28;20077;-74
2022/01/23 14:31:01;;;;;;;29.17;16.10;;;;;;;4.88;74.08;101813.41;5007831;28;20387;-74
2022/01/23 14:33:32;;;;;;;32.42;16.60;;;;;;;4.79;73.34;101802.50;4959752;28;20038;-81
2022/01/23 14:35:59;;;;;;;29.00;17.13;;;;;;;4.80;73.04;101809.75;5009891;28;20026;-79
2022/01/23 14:38:27;;;;;;;34.38;16.45;;;;;;;4.79;73.62;101823.06;5005285;28;20031;-78
2022/01/23 14:41:21;;;;;;;34.58;15.88;;;;;;;4.72;74.34;101830.72;4975769;28;20031;-79
2022/01/23 14:43:49;;;;;;;34.03;17.73;;;;;;;4.66;74.23;101823.88;4973624;28;20035;-79
2022/01/23 14:46:15;;;;;;;30.38;17.55;;;;;;;4.66;73.66;101829.50;4977674;28;20062;-79
2022/01/23 14:48:48;;;;;;;32.03;17.58;;;;;;;4.61;75.33;101833.53;4992284;28;20054;-81
2022/01/23 14:51:19;;;;;;;28.73;17.13;;;;;;;4.59;75.68;101835.13;4976311;28;20110;-81
2022/01/23 14:53:50;;;;;;;30.10;16.50;;;;;;;4.55;75.78;101832.31;4977653;28;20425;-82
2022/01/23 14:56:17;;;;;;;36.83;17.67;;;;;;;4.49;75.05;101830.31;5008446;28;20062;-81
2022/01/23 14:58:43;;;;;;;32.00;16.92;;;;;;;4.39;75.10;101831.88;4992848;28;20113;-78
2022/01/23 15:01:12;;;;;;;33.13;18.77;;;;;;;4.25;75.63;101837.47;5008477;28;20529;-76
2022/01/23 15:03:52;;;;;;;30.48;17.60;;;;;;;4.25;76.34;101843.91;4991562;28;20531;-76
2022/01/23 15:06:24;;;;;;;37.92;18.45;;;;;;;4.24;76.47;101836.66;4976679;28;20105;-75
2022/01/23 15:08:50;;;;;;;37.90;22.05;;;;;;;4.23;76.55;101837.06;4991684;28;20041;-73
2022/01/23 15:11:15;;;;;;;35.72;19.15;;;;;;;4.28;76.55;101837.50;4977144;28;20023;-75
2022/01/23 15:13:41;;;;;;;47.10;23.90;;;;;;;4.28;76.42;101826.22;4960023;28;20114;-78